sensor_id;sensor_type;location;lat;lon;timestamp;P1;durP1;ratioP1;P2;durP2;ratioP2
65667;SDS011;52369;52.542;13.232;2022-10-31T00:01:37;28.60;;;15.57;;
65667;SDS011;52369;52.542;13.232;2022-10-31T00:04:04;28.13;;;14.27;;
65667;SDS011;52369;52.542;13.232;2022-10-31T00:06:30;25.15;;;14.70;;
65667;SDS011;52369;52.542;13.232;2022-10-31T00:08:57;26.92;;;14.20;;
65667;SDS011;52369;52.542;13.232;2022-10-31T00:11:24;27.08;;;14.95;;
65667;SDS011;52369;52.542;13.232;2022-10-31T00:13:50;25.30;;;15.15;;
65667;SDS011;52369;52.542;13.232;2022-10-31T00:16:17;22.98;;;13.57;;
65667;SDS011;52369;52.542;13.232;2022-10-31T00:18:47;26.65;;;14.73;;
65667;SDS011;52369;52.542;13.232;2022-10-31T00:21:13;28.15;;;13.90;;
65667;SDS011;52369;52.542;13.232;2022-10-31T00:23:40;25.45;;;13.80;;
65667;SDS011;52369;52.542;13.232;2022-10-31T00:26:06;27.38;;;14.20;;
65667;SDS011;52369;52.542;13.232;2022-10-31T00:28:32;24.20;;;13.85;;
65667;SDS011;52369;52.542;13.232;2022-10-31T00:31:01;34.30;;;17.38;;
65667;SDS011;52369;52.542;13.232;2022-10-31T00:33:28;28.60;;;14.15;;
65667;SDS011;52369;52.542;13.232;2022-10-31T00:35:54;29.27;;;14.25;;
65667;SDS011;52369;52.542;13.232;2022-10-31T00:38:21;32.60;;;15.73;;
65667;SDS011;52369;52.542;13.232;2022-10-31T00:40:47;22.60;;;12.27;;
65667;SDS011;52369;52.542;13.232;2022-10-31T00:43:13;21.27;;;12.60;;
65667;SDS011;52369;52.542;13.232;2022-10-31T00:45:39;28.95;;;15.43;;
65667;SDS011;52369;52.542;13.232;2022-10-31T00:48:06;23.83;;;12.98;;
65667;SDS011;52369;52.542;13.232;2022-10-31T00:50:32;19.88;;;11.63;;
65667;SDS011;52369;52.542;13.232;2022-10-31T00:52:58;21.42;;;11.63;;
65667;SDS011;52369;52.542;13.232;2022-10-31T00:55:24;21.42;;;12.65;;
65667;SDS011;52369;52.542;13.232;2022-10-31T00:57:50;20.73;;;12.20;;
65667;SDS011;52369;52.542;13.232;2022-10-31T01:00:16;21.60;;;12.70;;
65667;SDS011;52369;52.542;13.232;2022-10-31T01:02:42;21.10;;;12.77;;
65667;SDS011;52369;52.542;13.232;2022-10-31T01:05:08;27.20;;;12.68;;
65667;SDS011;52369;52.542;13.232;2022-10-31T01:07:37;19.55;;;12.48;;
65667;SDS011;52369;52.542;13.232;2022-10-31T01:10:04;20.88;;;11.88;;
65667;SDS011;52369;52.542;13.232;2022-10-31T01:12:35;24.55;;;13.75;;
65667;SDS011;52369;52.542;13.232;2022-10-31T01:15:01;21.90;;;11.15;;
65667;SDS011;52369;52.542;13.232;2022-10-31T01:17:27;24.27;;;13.63;;
65667;SDS011;52369;52.542;13.232;2022-10-31T01:19:53;19.13;;;12.18;;
65667;SDS011;52369;52.542;13.232;2022-10-31T01:22:19;24.08;;;12.07;;
65667;SDS011;52369;52.542;13.232;2022-10-31T01:24:45;20.08;;;11.20;;
65667;SDS011;52369;52.542;13.232;2022-10-31T01:27:11;23.75;;;12.57;;
65667;SDS011;52369;52.542;13.232;2022-10-31T01:29:37;21.05;;;11.95;;
65667;SDS011;52369;52.542;13.232;2022-10-31T01:32:03;25.02;;;13.15;;
65667;SDS011;52369;52.542;13.232;2022-10-31T01:34:29;21.65;;;12.45;;
65667;SDS011;52369;52.542;13.232;2022-10-31T01:36:55;25.90;;;13.07;;
65667;SDS011;52369;52.542;13.232;2022-10-31T01:39:21;19.70;;;12.45;;
65667;SDS011;52369;52.542;13.232;2022-10-31T01:41:48;28.20;;;13.85;;
65667;SDS011;52369;52.542;13.232;2022-10-31T01:46:50;23.55;;;13.23;;
65667;SDS011;52369;52.542;13.232;2022-10-31T01:49:29;19.33;;;12.60;;
65667;SDS011;52369;52.542;13.232;2022-10-31T01:54:26;25.98;;;12.82;;
65667;SDS011;52369;52.542;13.232;2022-10-31T01:56:55;22.73;;;12.98;;
65667;SDS011;52369;52.542;13.232;2022-10-31T01:59:22;22.52;;;12.18;;
65667;SDS011;52369;52.542;13.232;2022-10-31T02:01:49;20.75;;;12.95;;
65667;SDS011;52369;52.542;13.232;2022-10-31T02:04:16;29.15;;;13.52;;
65667;SDS011;52369;52.542;13.232;2022-10-31T02:06:49;21.55;;;12.98;;
65667;SDS011;52369;52.542;13.232;2022-10-31T02:09:17;22.35;;;12.30;;
65667;SDS011;52369;52.542;13.232;2022-10-31T02:11:48;23.98;;;12.88;;
65667;SDS011;52369;52.542;13.232;2022-10-31T02:14:15;20.67;;;12.57;;
65667;SDS011;52369;52.542;13.232;2022-10-31T02:16:41;27.52;;;13.05;;
65667;SDS011;52369;52.542;13.232;2022-10-31T02:19:07;21.70;;;12.52;;
65667;SDS011;52369;52.542;13.232;2022-10-31T02:21:39;21.88;;;13.23;;
65667;SDS011;52369;52.542;13.232;2022-10-31T02:32:11;22.53;;;13.10;;
65667;SDS011;52369;52.542;13.232;2022-10-31T02:37:14;21.47;;;12.73;;
65667;SDS011;52369;52.542;13.232;2022-10-31T02:47:37;23.00;;;13.18;;
65667;SDS011;52369;52.542;13.232;2022-10-31T02:52:30;24.67;;;12.85;;
65667;SDS011;52369;52.542;13.232;2022-10-31T02:54:57;23.92;;;12.48;;
65667;SDS011;52369;52.542;13.232;2022-10-31T02:57:29;22.60;;;12.73;;
65667;SDS011;52369;52.542;13.232;2022-10-31T02:59:58;27.50;;;13.38;;
65667;SDS011;52369;52.542;13.232;2022-10-31T03:07:51;22.30;;;12.57;;
65667;SDS011;52369;52.542;13.232;2022-10-31T03:12:54;29.00;;;11.90;;
65667;SDS011;52369;52.542;13.232;2022-10-31T03:15:30;24.30;;;13.05;;
65667;SDS011;52369;52.542;13.232;2022-10-31T03:18:00;20.70;;;12.52;;
65667;SDS011;52369;52.542;13.232;2022-10-31T03:21:11;21.30;;;13.13;;
65667;SDS011;52369;52.542;13.232;2022-10-31T03:23:19;21.33;;;11.50;;
65667;SDS011;52369;52.542;13.232;2022-10-31T03:25:47;21.13;;;12.60;;
65667;SDS011;52369;52.542;13.232;2022-10-31T03:28:13;18.40;;;12.07;;
65667;SDS011;52369;52.542;13.232;2022-10-31T03:30:41;23.10;;;11.85;;
65667;SDS011;52369;52.542;13.232;2022-10-31T03:33:10;30.90;;;14.95;;
65667;SDS011;52369;52.542;13.232;2022-10-31T03:35:37;22.55;;;12.77;;
65667;SDS011;52369;52.542;13.232;2022-10-31T03:38:06;18.98;;;11.57;;
65667;SDS011;52369;52.542;13.232;2022-10-31T03:40:32;21.83;;;12.05;;
65667;SDS011;52369;52.542;13.232;2022-10-31T03:43:01;21.63;;;11.60;;
65667;SDS011;52369;52.542;13.232;2022-10-31T03:45:30;23.83;;;12.23;;
65667;SDS011;52369;52.542;13.232;2022-10-31T03:47:56;20.63;;;11.75;;
65667;SDS011;52369;52.542;13.232;2022-10-31T03:50:23;23.17;;;13.13;;
65667;SDS011;52369;52.542;13.232;2022-10-31T03:52:58;20.67;;;11.65;;
65667;SDS011;52369;52.542;13.232;2022-10-31T03:55:28;24.65;;;12.80;;
65667;SDS011;52369;52.542;13.232;2022-10-31T03:57:57;17.23;;;11.43;;
65667;SDS011;52369;52.542;13.232;2022-10-31T04:00:24;23.65;;;11.88;;
65667;SDS011;52369;52.542;13.232;2022-10-31T04:02:56;21.77;;;12.20;;
65667;SDS011;52369;52.542;13.232;2022-10-31T04:05:23;21.77;;;11.93;;
65667;SDS011;52369;52.542;13.232;2022-10-31T04:07:50;22.85;;;12.60;;
65667;SDS011;52369;52.542;13.232;2022-10-31T04:10:17;18.60;;;11.90;;
65667;SDS011;52369;52.542;13.232;2022-10-31T04:12:49;21.20;;;11.77;;
65667;SDS011;52369;52.542;13.232;2022-10-31T04:15:16;20.98;;;11.48;;
65667;SDS011;52369;52.542;13.232;2022-10-31T04:17:42;22.83;;;11.60;;
65667;SDS011;52369;52.542;13.232;2022-10-31T04:20:09;23.63;;;11.60;;
65667;SDS011;52369;52.542;13.232;2022-10-31T04:22:36;22.10;;;12.35;;
65667;SDS011;52369;52.542;13.232;2022-10-31T04:25:02;23.92;;;12.55;;
65667;SDS011;52369;52.542;13.232;2022-10-31T04:27:28;23.35;;;11.60;;
65667;SDS011;52369;52.542;13.232;2022-10-31T04:29:54;27.63;;;13.32;;
65667;SDS011;52369;52.542;13.232;2022-10-31T04:32:20;19.02;;;12.13;;
65667;SDS011;52369;52.542;13.232;2022-10-31T04:34:46;23.98;;;13.45;;
65667;SDS011;52369;52.542;13.232;2022-10-31T04:37:12;22.52;;;12.25;;
65667;SDS011;52369;52.542;13.232;2022-10-31T04:39:38;24.98;;;12.85;;
65667;SDS011;52369;52.542;13.232;2022-10-31T04:42:04;21.25;;;11.80;;
65667;SDS011;52369;52.542;13.232;2022-10-31T04:44:30;22.80;;;11.90;;
65667;SDS011;52369;52.542;13.232;2022-10-31T04:46:56;23.00;;;11.93;;
65667;SDS011;52369;52.542;13.232;2022-10-31T04:49:22;19.55;;;12.40;;
65667;SDS011;52369;52.542;13.232;2022-10-31T04:51:48;22.55;;;11.88;;
65667;SDS011;52369;52.542;13.232;2022-10-31T04:54:13;20.77;;;12.23;;
65667;SDS011;52369;52.542;13.232;2022-10-31T04:56:39;19.95;;;12.55;;
65667;SDS011;52369;52.542;13.232;2022-10-31T04:59:05;22.30;;;12.52;;
65667;SDS011;52369;52.542;13.232;2022-10-31T05:01:31;18.55;;;11.90;;
65667;SDS011;52369;52.542;13.232;2022-10-31T05:03:57;20.85;;;11.70;;
65667;SDS011;52369;52.542;13.232;2022-10-31T05:06:23;23.73;;;11.98;;
65667;SDS011;52369;52.542;13.232;2022-10-31T05:08:49;22.02;;;12.98;;
65667;SDS011;52369;52.542;13.232;2022-10-31T05:11:15;18.65;;;11.38;;
65667;SDS011;52369;52.542;13.232;2022-10-31T05:13:41;19.63;;;12.23;;
65667;SDS011;52369;52.542;13.232;2022-10-31T05:16:07;21.00;;;12.65;;
65667;SDS011;52369;52.542;13.232;2022-10-31T05:18:33;19.33;;;12.07;;
65667;SDS011;52369;52.542;13.232;2022-10-31T05:20:59;26.88;;;13.32;;
65667;SDS011;52369;52.542;13.232;2022-10-31T05:23:25;22.45;;;12.13;;
65667;SDS011;52369;52.542;13.232;2022-10-31T05:25:51;20.20;;;11.65;;
65667;SDS011;52369;52.542;13.232;2022-10-31T05:28:17;23.42;;;12.48;;
65667;SDS011;52369;52.542;13.232;2022-10-31T05:30:43;23.88;;;12.23;;
65667;SDS011;52369;52.542;13.232;2022-10-31T05:33:09;20.92;;;11.48;;
65667;SDS011;52369;52.542;13.232;2022-10-31T05:35:35;25.05;;;12.55;;
65667;SDS011;52369;52.542;13.232;2022-10-31T05:38:01;19.50;;;11.40;;
65667;SDS011;52369;52.542;13.232;2022-10-31T05:40:27;24.73;;;11.80;;
65667;SDS011;52369;52.542;13.232;2022-10-31T05:42:54;19.45;;;11.75;;
65667;SDS011;52369;52.542;13.232;2022-10-31T05:45:21;20.33;;;11.80;;
65667;SDS011;52369;52.542;13.232;2022-10-31T05:47:59;22.02;;;12.32;;
65667;SDS011;52369;52.542;13.232;2022-10-31T05:50:26;24.60;;;12.05;;
65667;SDS011;52369;52.542;13.232;2022-10-31T05:52:56;20.85;;;12.73;;
65667;SDS011;52369;52.542;13.232;2022-10-31T05:55:22;21.55;;;12.13;;
65667;SDS011;52369;52.542;13.232;2022-10-31T05:57:50;21.45;;;11.30;;
65667;SDS011;52369;52.542;13.232;2022-10-31T06:00:17;23.35;;;11.57;;
65667;SDS011;52369;52.542;13.232;2022-10-31T06:02:43;22.00;;;12.10;;
65667;SDS011;52369;52.542;13.232;2022-10-31T06:05:09;21.00;;;11.48;;
65667;SDS011;52369;52.542;13.232;2022-10-31T06:07:35;22.58;;;12.38;;
65667;SDS011;52369;52.542;13.232;2022-10-31T06:10:03;22.52;;;12.30;;
65667;SDS011;52369;52.542;13.232;2022-10-31T06:12:29;19.70;;;12.52;;
65667;SDS011;52369;52.542;13.232;2022-10-31T06:14:55;23.00;;;11.45;;
65667;SDS011;52369;52.542;13.232;2022-10-31T06:17:21;20.92;;;11.65;;
65667;SDS011;52369;52.542;13.232;2022-10-31T06:19:47;18.67;;;10.68;;
65667;SDS011;52369;52.542;13.232;2022-10-31T06:22:13;24.63;;;12.73;;
65667;SDS011;52369;52.542;13.232;2022-10-31T06:24:39;22.67;;;10.88;;
65667;SDS011;52369;52.542;13.232;2022-10-31T06:27:05;23.02;;;12.38;;
65667;SDS011;52369;52.542;13.232;2022-10-31T06:29:31;23.33;;;11.60;;
65667;SDS011;52369;52.542;13.232;2022-10-31T06:31:57;19.25;;;11.57;;
65667;SDS011;52369;52.542;13.232;2022-10-31T06:34:23;22.20;;;12.07;;
65667;SDS011;52369;52.542;13.232;2022-10-31T06:36:49;21.30;;;12.02;;
65667;SDS011;52369;52.542;13.232;2022-10-31T06:39:15;22.55;;;10.82;;
65667;SDS011;52369;52.542;13.232;2022-10-31T06:41:41;23.38;;;11.32;;
65667;SDS011;52369;52.542;13.232;2022-10-31T06:44:07;23.20;;;10.93;;
65667;SDS011;52369;52.542;13.232;2022-10-31T06:46:33;17.52;;;11.50;;
65667;SDS011;52369;52.542;13.232;2022-10-31T06:48:59;21.20;;;11.32;;
65667;SDS011;52369;52.542;13.232;2022-10-31T06:51:25;23.10;;;11.60;;
65667;SDS011;52369;52.542;13.232;2022-10-31T06:53:51;22.02;;;11.23;;
65667;SDS011;52369;52.542;13.232;2022-10-31T06:56:17;19.17;;;10.40;;
65667;SDS011;52369;52.542;13.232;2022-10-31T06:58:43;20.90;;;11.57;;
65667;SDS011;52369;52.542;13.232;2022-10-31T07:01:09;21.67;;;12.73;;
65667;SDS011;52369;52.542;13.232;2022-10-31T07:03:35;23.83;;;11.23;;
65667;SDS011;52369;52.542;13.232;2022-10-31T07:06:01;20.20;;;11.60;;
65667;SDS011;52369;52.542;13.232;2022-10-31T07:08:27;20.60;;;11.30;;
65667;SDS011;52369;52.542;13.232;2022-10-31T07:10:54;20.88;;;10.85;;
65667;SDS011;52369;52.542;13.232;2022-10-31T07:13:21;22.25;;;11.68;;
65667;SDS011;52369;52.542;13.232;2022-10-31T07:15:50;23.30;;;13.05;;
65667;SDS011;52369;52.542;13.232;2022-10-31T07:18:17;18.55;;;11.35;;
65667;SDS011;52369;52.542;13.232;2022-10-31T07:20:42;25.35;;;11.90;;
65667;SDS011;52369;52.542;13.232;2022-10-31T07:23:12;20.42;;;11.10;;
65667;SDS011;52369;52.542;13.232;2022-10-31T07:25:38;22.60;;;12.05;;
65667;SDS011;52369;52.542;13.232;2022-10-31T07:28:04;19.33;;;11.88;;
65667;SDS011;52369;52.542;13.232;2022-10-31T07:30:30;24.13;;;12.07;;
65667;SDS011;52369;52.542;13.232;2022-10-31T07:32:56;27.83;;;15.68;;
65667;SDS011;52369;52.542;13.232;2022-10-31T07:35:24;26.90;;;13.18;;
65667;SDS011;52369;52.542;13.232;2022-10-31T07:37:50;25.75;;;12.35;;
65667;SDS011;52369;52.542;13.232;2022-10-31T07:40:16;21.00;;;11.82;;
65667;SDS011;52369;52.542;13.232;2022-10-31T07:42:44;22.85;;;12.43;;
65667;SDS011;52369;52.542;13.232;2022-10-31T07:45:11;23.75;;;12.90;;
65667;SDS011;52369;52.542;13.232;2022-10-31T07:48:11;21.27;;;11.68;;
65667;SDS011;52369;52.542;13.232;2022-10-31T07:50:30;24.50;;;11.73;;
65667;SDS011;52369;52.542;13.232;2022-10-31T07:53:02;22.48;;;12.65;;
65667;SDS011;52369;52.542;13.232;2022-10-31T07:55:29;17.90;;;11.60;;
65667;SDS011;52369;52.542;13.232;2022-10-31T07:58:16;25.02;;;13.05;;
65667;SDS011;52369;52.542;13.232;2022-10-31T08:00:42;20.50;;;11.82;;
65667;SDS011;52369;52.542;13.232;2022-10-31T08:05:35;25.63;;;13.38;;
65667;SDS011;52369;52.542;13.232;2022-10-31T08:08:01;28.40;;;13.65;;
65667;SDS011;52369;52.542;13.232;2022-10-31T08:10:27;26.73;;;12.48;;
65667;SDS011;52369;52.542;13.232;2022-10-31T08:12:57;22.92;;;13.23;;
65667;SDS011;52369;52.542;13.232;2022-10-31T08:15:23;23.98;;;12.68;;
65667;SDS011;52369;52.542;13.232;2022-10-31T08:17:49;24.90;;;12.73;;
65667;SDS011;52369;52.542;13.232;2022-10-31T08:20:15;22.08;;;12.52;;
65667;SDS011;52369;52.542;13.232;2022-10-31T08:22:41;22.67;;;12.27;;
65667;SDS011;52369;52.542;13.232;2022-10-31T08:25:07;30.80;;;13.38;;
65667;SDS011;52369;52.542;13.232;2022-10-31T08:27:33;23.80;;;13.13;;
65667;SDS011;52369;52.542;13.232;2022-10-31T08:29:59;24.77;;;13.88;;
65667;SDS011;52369;52.542;13.232;2022-10-31T08:32:25;23.35;;;12.50;;
65667;SDS011;52369;52.542;13.232;2022-10-31T08:34:51;27.38;;;15.25;;
65667;SDS011;52369;52.542;13.232;2022-10-31T08:37:17;24.20;;;14.13;;
65667;SDS011;52369;52.542;13.232;2022-10-31T08:39:45;28.35;;;14.18;;
65667;SDS011;52369;52.542;13.232;2022-10-31T08:42:11;24.25;;;13.15;;
65667;SDS011;52369;52.542;13.232;2022-10-31T08:44:37;26.08;;;14.18;;
65667;SDS011;52369;52.542;13.232;2022-10-31T08:47:03;30.48;;;14.50;;
65667;SDS011;52369;52.542;13.232;2022-10-31T08:49:29;26.52;;;15.15;;
65667;SDS011;52369;52.542;13.232;2022-10-31T08:51:55;26.42;;;13.95;;
65667;SDS011;52369;52.542;13.232;2022-10-31T08:54:21;26.40;;;14.10;;
65667;SDS011;52369;52.542;13.232;2022-10-31T08:56:47;28.50;;;14.65;;
65667;SDS011;52369;52.542;13.232;2022-10-31T08:59:13;27.60;;;14.38;;
65667;SDS011;52369;52.542;13.232;2022-10-31T09:01:39;28.40;;;15.35;;
65667;SDS011;52369;52.542;13.232;2022-10-31T09:04:05;27.92;;;15.23;;
65667;SDS011;52369;52.542;13.232;2022-10-31T09:06:31;27.73;;;14.85;;
65667;SDS011;52369;52.542;13.232;2022-10-31T09:08:57;28.15;;;15.02;;
65667;SDS011;52369;52.542;13.232;2022-10-31T09:11:23;27.23;;;14.18;;
65667;SDS011;52369;52.542;13.232;2022-10-31T09:13:49;28.75;;;14.57;;
65667;SDS011;52369;52.542;13.232;2022-10-31T09:16:17;26.13;;;15.15;;
65667;SDS011;52369;52.542;13.232;2022-10-31T09:18:43;27.20;;;14.65;;
65667;SDS011;52369;52.542;13.232;2022-10-31T09:21:09;30.42;;;15.65;;
65667;SDS011;52369;52.542;13.232;2022-10-31T09:23:35;27.88;;;14.65;;
65667;SDS011;52369;52.542;13.232;2022-10-31T09:26:01;26.90;;;14.73;;
65667;SDS011;52369;52.542;13.232;2022-10-31T09:28:27;29.02;;;15.18;;
65667;SDS011;52369;52.542;13.232;2022-10-31T09:30:53;30.40;;;15.65;;
65667;SDS011;52369;52.542;13.232;2022-10-31T09:33:20;25.23;;;15.35;;
65667;SDS011;52369;52.542;13.232;2022-10-31T09:35:46;31.52;;;14.52;;
65667;SDS011;52369;52.542;13.232;2022-10-31T09:38:13;26.80;;;15.05;;
65667;SDS011;52369;52.542;13.232;2022-10-31T09:43:16;28.95;;;15.65;;
65667;SDS011;52369;52.542;13.232;2022-10-31T09:51:08;28.57;;;15.40;;
65667;SDS011;52369;52.542;13.232;2022-10-31T09:53:37;29.77;;;15.82;;
65667;SDS011;52369;52.542;13.232;2022-10-31T09:56:07;29.25;;;15.30;;
65667;SDS011;52369;52.542;13.232;2022-10-31T09:58:34;28.83;;;16.17;;
65667;SDS011;52369;52.542;13.232;2022-10-31T10:01:04;32.92;;;15.63;;
65667;SDS011;52369;52.542;13.232;2022-10-31T10:03:44;29.45;;;15.88;;
65667;SDS011;52369;52.542;13.232;2022-10-31T10:06:22;27.15;;;15.65;;
65667;SDS011;52369;52.542;13.232;2022-10-31T10:08:49;25.25;;;14.50;;
65667;SDS011;52369;52.542;13.232;2022-10-31T10:11:25;29.58;;;16.88;;
65667;SDS011;52369;52.542;13.232;2022-10-31T10:22:10;29.27;;;14.93;;
65667;SDS011;52369;52.542;13.232;2022-10-31T10:24:57;25.15;;;13.68;;
65667;SDS011;52369;52.542;13.232;2022-10-31T10:30:15;25.65;;;14.60;;
65667;SDS011;52369;52.542;13.232;2022-10-31T10:33:04;24.35;;;14.60;;
65667;SDS011;52369;52.542;13.232;2022-10-31T10:35:33;24.70;;;14.30;;
65667;SDS011;52369;52.542;13.232;2022-10-31T10:40:44;25.70;;;13.80;;
65667;SDS011;52369;52.542;13.232;2022-10-31T10:45:50;25.17;;;14.60;;
65667;SDS011;52369;52.542;13.232;2022-10-31T10:48:42;28.48;;;15.63;;
65667;SDS011;52369;52.542;13.232;2022-10-31T10:53:59;25.40;;;14.68;;
65667;SDS011;52369;52.542;13.232;2022-10-31T10:56:40;24.50;;;15.00;;
65667;SDS011;52369;52.542;13.232;2022-10-31T10:59:15;27.38;;;16.98;;
65667;SDS011;52369;52.542;13.232;2022-10-31T11:01:42;28.93;;;16.33;;
65667;SDS011;52369;52.542;13.232;2022-10-31T11:04:42;27.05;;;16.35;;
65667;SDS011;52369;52.542;13.232;2022-10-31T11:07:05;30.65;;;16.60;;
65667;SDS011;52369;52.542;13.232;2022-10-31T11:09:32;28.20;;;15.93;;
65667;SDS011;52369;52.542;13.232;2022-10-31T11:11:59;32.20;;;16.73;;
65667;SDS011;52369;52.542;13.232;2022-10-31T11:14:26;32.35;;;18.88;;
65667;SDS011;52369;52.542;13.232;2022-10-31T11:17:07;27.73;;;15.60;;
65667;SDS011;52369;52.542;13.232;2022-10-31T11:19:33;34.35;;;18.30;;
65667;SDS011;52369;52.542;13.232;2022-10-31T11:22:07;25.63;;;16.02;;
65667;SDS011;52369;52.542;13.232;2022-10-31T11:24:36;33.38;;;17.17;;
65667;SDS011;52369;52.542;13.232;2022-10-31T11:27:12;30.67;;;17.90;;
65667;SDS011;52369;52.542;13.232;2022-10-31T11:29:39;29.13;;;16.45;;
65667;SDS011;52369;52.542;13.232;2022-10-31T11:32:05;29.15;;;16.90;;
65667;SDS011;52369;52.542;13.232;2022-10-31T11:34:32;28.10;;;16.33;;
65667;SDS011;52369;52.542;13.232;2022-10-31T11:37:01;27.05;;;16.17;;
65667;SDS011;52369;52.542;13.232;2022-10-31T11:39:28;29.67;;;16.88;;
65667;SDS011;52369;52.542;13.232;2022-10-31T11:41:54;31.00;;;17.23;;
65667;SDS011;52369;52.542;13.232;2022-10-31T11:44:22;26.73;;;16.40;;
65667;SDS011;52369;52.542;13.232;2022-10-31T11:46:54;30.75;;;17.48;;
65667;SDS011;52369;52.542;13.232;2022-10-31T11:49:25;31.58;;;16.08;;
65667;SDS011;52369;52.542;13.232;2022-10-31T11:51:53;28.33;;;16.60;;
65667;SDS011;52369;52.542;13.232;2022-10-31T11:54:24;28.60;;;16.38;;
65667;SDS011;52369;52.542;13.232;2022-10-31T11:56:51;32.60;;;16.80;;
65667;SDS011;52369;52.542;13.232;2022-10-31T11:59:22;36.35;;;17.92;;
65667;SDS011;52369;52.542;13.232;2022-10-31T12:01:49;30.67;;;17.58;;
65667;SDS011;52369;52.542;13.232;2022-10-31T12:04:16;27.50;;;15.10;;
65667;SDS011;52369;52.542;13.232;2022-10-31T12:06:42;25.77;;;15.85;;
65667;SDS011;52369;52.542;13.232;2022-10-31T12:09:25;26.58;;;15.63;;
65667;SDS011;52369;52.542;13.232;2022-10-31T12:17:13;28.55;;;17.88;;
65667;SDS011;52369;52.542;13.232;2022-10-31T12:27:17;31.40;;;19.33;;
65667;SDS011;52369;52.542;13.232;2022-10-31T12:29:49;31.58;;;18.83;;
65667;SDS011;52369;52.542;13.232;2022-10-31T12:58:22;31.13;;;19.35;;
65667;SDS011;52369;52.542;13.232;2022-10-31T13:01:24;35.17;;;19.60;;
65667;SDS011;52369;52.542;13.232;2022-10-31T13:03:44;31.85;;;19.80;;
65667;SDS011;52369;52.542;13.232;2022-10-31T13:06:17;35.50;;;20.42;;
65667;SDS011;52369;52.542;13.232;2022-10-31T13:11:12;32.35;;;19.90;;
65667;SDS011;52369;52.542;13.232;2022-10-31T13:13:53;43.05;;;27.75;;
65667;SDS011;52369;52.542;13.232;2022-10-31T13:16:21;31.00;;;19.95;;
65667;SDS011;52369;52.542;13.232;2022-10-31T13:21:21;33.83;;;22.15;;
65667;SDS011;52369;52.542;13.232;2022-10-31T13:23:49;35.03;;;20.57;;
65667;SDS011;52369;52.542;13.232;2022-10-31T13:26:34;33.55;;;21.58;;
65667;SDS011;52369;52.542;13.232;2022-10-31T13:31:40;36.55;;;22.48;;
65667;SDS011;52369;52.542;13.232;2022-10-31T13:34:10;35.60;;;21.60;;
65667;SDS011;52369;52.542;13.232;2022-10-31T13:36:42;35.90;;;20.20;;
65667;SDS011;52369;52.542;13.232;2022-10-31T13:41:43;37.03;;;21.60;;
65667;SDS011;52369;52.542;13.232;2022-10-31T13:49:46;47.00;;;26.30;;
65667;SDS011;52369;52.542;13.232;2022-10-31T13:54:39;46.05;;;25.90;;
65667;SDS011;52369;52.542;13.232;2022-10-31T13:59:53;42.70;;;24.13;;
65667;SDS011;52369;52.542;13.232;2022-10-31T14:02:30;45.90;;;23.98;;
65667;SDS011;52369;52.542;13.232;2022-10-31T14:05:01;46.33;;;24.38;;
65667;SDS011;52369;52.542;13.232;2022-10-31T14:07:27;46.70;;;23.90;;
65667;SDS011;52369;52.542;13.232;2022-10-31T14:12:31;48.85;;;24.70;;
65667;SDS011;52369;52.542;13.232;2022-10-31T14:17:33;48.65;;;25.55;;
65667;SDS011;52369;52.542;13.232;2022-10-31T14:22:29;45.90;;;24.45;;
65667;SDS011;52369;52.542;13.232;2022-10-31T14:24:55;44.53;;;23.10;;
65667;SDS011;52369;52.542;13.232;2022-10-31T14:29:54;47.75;;;26.55;;
65667;SDS011;52369;52.542;13.232;2022-10-31T14:32:23;50.45;;;26.25;;
65667;SDS011;52369;52.542;13.232;2022-10-31T14:37:38;44.30;;;25.10;;
65667;SDS011;52369;52.542;13.232;2022-10-31T14:40:18;51.97;;;26.08;;
65667;SDS011;52369;52.542;13.232;2022-10-31T14:53:11;44.78;;;23.17;;
65667;SDS011;52369;52.542;13.232;2022-10-31T14:55:41;50.15;;;25.33;;
65667;SDS011;52369;52.542;13.232;2022-10-31T14:58:07;52.30;;;25.83;;
65667;SDS011;52369;52.542;13.232;2022-10-31T15:00:33;45.42;;;23.30;;
65667;SDS011;52369;52.542;13.232;2022-10-31T15:05:27;44.63;;;22.92;;
65667;SDS011;52369;52.542;13.232;2022-10-31T15:07:57;50.05;;;25.63;;
65667;SDS011;52369;52.542;13.232;2022-10-31T15:10:25;49.20;;;26.27;;
65667;SDS011;52369;52.542;13.232;2022-10-31T15:12:52;53.58;;;26.40;;
65667;SDS011;52369;52.542;13.232;2022-10-31T15:15:20;53.47;;;25.10;;
65667;SDS011;52369;52.542;13.232;2022-10-31T15:17:57;52.17;;;26.17;;
65667;SDS011;52369;52.542;13.232;2022-10-31T15:20:28;62.65;;;29.27;;
65667;SDS011;52369;52.542;13.232;2022-10-31T15:22:55;54.33;;;26.33;;
65667;SDS011;52369;52.542;13.232;2022-10-31T15:25:22;55.92;;;27.58;;
65667;SDS011;52369;52.542;13.232;2022-10-31T15:27:49;53.28;;;26.65;;
65667;SDS011;52369;52.542;13.232;2022-10-31T15:30:16;61.35;;;29.08;;
65667;SDS011;52369;52.542;13.232;2022-10-31T15:32:44;57.55;;;27.95;;
65667;SDS011;52369;52.542;13.232;2022-10-31T15:35:14;56.80;;;27.40;;
65667;SDS011;52369;52.542;13.232;2022-10-31T15:37:44;51.65;;;25.90;;
65667;SDS011;52369;52.542;13.232;2022-10-31T15:40:16;55.67;;;26.17;;
65667;SDS011;52369;52.542;13.232;2022-10-31T15:42:44;50.00;;;24.25;;
65667;SDS011;52369;52.542;13.232;2022-10-31T15:47:38;53.80;;;25.73;;
65667;SDS011;52369;52.542;13.232;2022-10-31T15:50:05;52.42;;;23.17;;
65667;SDS011;52369;52.542;13.232;2022-10-31T15:52:44;45.60;;;23.25;;
65667;SDS011;52369;52.542;13.232;2022-10-31T15:57:43;42.80;;;22.23;;
65667;SDS011;52369;52.542;13.232;2022-10-31T16:02:48;42.40;;;21.75;;
65667;SDS011;52369;52.542;13.232;2022-10-31T16:05:15;41.40;;;21.20;;
65667;SDS011;52369;52.542;13.232;2022-10-31T16:07:47;41.15;;;20.67;;
65667;SDS011;52369;52.542;13.232;2022-10-31T16:10:21;44.90;;;22.13;;
65667;SDS011;52369;52.542;13.232;2022-10-31T16:12:48;43.17;;;21.85;;
65667;SDS011;52369;52.542;13.232;2022-10-31T16:15:15;45.17;;;23.58;;
65667;SDS011;52369;52.542;13.232;2022-10-31T16:17:42;51.78;;;23.15;;
65667;SDS011;52369;52.542;13.232;2022-10-31T16:20:16;46.95;;;23.77;;
65667;SDS011;52369;52.542;13.232;2022-10-31T16:22:46;47.92;;;23.17;;
65667;SDS011;52369;52.542;13.232;2022-10-31T16:25:15;43.35;;;23.13;;
65667;SDS011;52369;52.542;13.232;2022-10-31T16:27:47;47.50;;;22.88;;
65667;SDS011;52369;52.542;13.232;2022-10-31T16:32:59;51.20;;;23.20;;
65667;SDS011;52369;52.542;13.232;2022-10-31T16:35:38;47.65;;;22.83;;
65667;SDS011;52369;52.542;13.232;2022-10-31T16:38:04;48.97;;;23.60;;
65667;SDS011;52369;52.542;13.232;2022-10-31T16:40:31;44.10;;;22.83;;
65667;SDS011;52369;52.542;13.232;2022-10-31T16:42:58;44.72;;;23.60;;
65667;SDS011;52369;52.542;13.232;2022-10-31T16:45:25;40.47;;;21.35;;
65667;SDS011;52369;52.542;13.232;2022-10-31T16:47:52;39.90;;;20.98;;
65667;SDS011;52369;52.542;13.232;2022-10-31T16:50:27;38.78;;;21.33;;
65667;SDS011;52369;52.542;13.232;2022-10-31T16:52:53;37.67;;;20.25;;
65667;SDS011;52369;52.542;13.232;2022-10-31T16:55:20;39.70;;;20.80;;